createdAt,value
2022-08-05T00:00:06.086Z,25.37
2022-08-05T00:00:18.840Z,25.24
2022-08-05T00:00:30.875Z,25.27
2022-08-05T00:00:47.281Z,25.31
2022-08-05T00:01:20.585Z,25.36
2022-08-05T00:01:36.549Z,25.43
2022-08-05T00:02:07.839Z,25.44
2022-08-05T00:02:24.029Z,25.39
2022-08-05T00:02:37.828Z,25.40
2022-08-05T00:02:56.081Z,25.39
2022-08-05T00:03:08.068Z,25.41
2022-08-05T00:03:27.851Z,25.45
2022-08-05T00:03:44.526Z,25.42
2022-08-05T00:03:57.662Z,25.43
2022-08-05T00:04:09.793Z,25.44
2022-08-05T00:04:25.476Z,25.49
2022-08-05T00:04:37.510Z,25.54
2022-08-05T00:04:55.235Z,25.58
2022-08-05T00:05:08.253Z,25.57
2022-08-05T00:06:04.935Z,25.61
2022-08-05T00:06:29.301Z,25.63
2022-08-05T00:06:45.164Z,25.67
2022-08-05T00:06:59.851Z,25.65
2022-08-05T00:07:26.763Z,25.67
2022-08-05T00:07:59.644Z,25.70
2022-08-05T00:08:34.182Z,25.65
2022-08-05T00:08:45.112Z,25.67
2022-08-05T00:09:00.361Z,25.71
2022-08-05T00:09:15.689Z,25.69
2022-08-05T00:09:31.728Z,25.69
2022-08-05T00:09:44.069Z,25.67
2022-08-05T00:09:56.022Z,25.65
2022-08-05T00:10:08.416Z,25.63
2022-08-05T00:10:22.919Z,25.62
2022-08-05T00:10:39.418Z,25.63
2022-08-05T00:10:51.371Z,25.58
2022-08-05T00:11:20.308Z,25.59
2022-08-05T00:11:48.751Z,25.54
2022-08-05T00:12:01.668Z,25.42
2022-08-05T00:12:14.176Z,25.42
2022-08-05T00:12:26.272Z,25.34
2022-08-05T00:12:55.623Z,25.31
2022-08-05T00:13:08.858Z,25.39
2022-08-05T00:13:39.273Z,25.42
2022-08-05T00:13:52.920Z,25.42
2022-08-05T00:14:12.796Z,25.43
2022-08-05T00:14:31.397Z,25.43
2022-08-05T00:14:43.558Z,25.41
2022-08-05T00:14:55.808Z,25.41
2022-08-05T00:15:56.202Z,25.35
2022-08-05T00:15:56.412Z,25.37
2022-08-05T00:16:13.897Z,25.43
2022-08-05T00:16:35.272Z,25.42
2022-08-05T00:16:53.240Z,25.44
2022-08-05T00:17:05.900Z,25.46
2022-08-05T00:17:31.875Z,25.49
2022-08-05T00:17:44.084Z,25.47
2022-08-05T00:17:59.965Z,25.46
2022-08-05T00:18:21.331Z,25.46
2022-08-05T00:18:33.855Z,25.39
2022-08-05T00:18:48.146Z,25.39
2022-08-05T00:19:00.709Z,25.41
2022-08-05T00:19:12.894Z,25.43
2022-08-05T00:19:33.537Z,25.43
2022-08-05T00:20:02.352Z,25.48
2022-08-05T00:20:14.812Z,25.51
2022-08-05T00:20:32.406Z,25.47
2022-08-05T00:20:44.607Z,25.29
2022-08-05T00:21:00.936Z,25.18
2022-08-05T00:21:14.640Z,25.23
2022-08-05T00:21:26.684Z,25.27
2022-08-05T00:21:42.808Z,25.31
2022-08-05T00:21:54.773Z,25.34
2022-08-05T00:22:06.695Z,25.37
2022-08-05T00:22:23.132Z,25.40
2022-08-05T00:22:36.502Z,25.42
2022-08-05T00:22:57.369Z,25.46
2022-08-05T00:23:13.287Z,25.51
2022-08-05T00:23:44.693Z,25.52
2022-08-05T00:24:09.940Z,25.42
2022-08-05T00:24:24.528Z,25.29
2022-08-05T00:24:36.969Z,25.34
2022-08-05T00:24:55.082Z,25.39
2022-08-05T00:25:08.398Z,25.41
2022-08-05T00:25:24.672Z,25.29
2022-08-05T00:25:45.344Z,25.29
2022-08-05T00:25:58.270Z,25.21
2022-08-05T00:26:11.123Z,25.27
2022-08-05T00:26:23.177Z,25.20
2022-08-05T00:26:35.108Z,25.03
2022-08-05T00:26:51.785Z,25.07
2022-08-05T00:27:10.452Z,24.94
2022-08-05T00:27:36.171Z,25.03
2022-08-05T00:27:48.601Z,25.08
2022-08-05T00:28:02.887Z,25.21
2022-08-05T00:28:15.645Z,25.26
2022-08-05T00:28:33.507Z,25.32
2022-08-05T00:28:46.183Z,25.39
2022-08-05T00:28:58.155Z,25.43
2022-08-05T00:29:10.133Z,25.49
2022-08-05T00:29:22.674Z,25.49
2022-08-05T00:29:38.083Z,25.51
2022-08-05T00:29:50.444Z,25.54
2022-08-05T00:30:03.297Z,25.57
2022-08-05T00:30:15.458Z,25.57
2022-08-05T00:30:29.315Z,25.60
2022-08-05T00:30:44.380Z,25.61
2022-08-05T00:31:05.122Z,25.61
2022-08-05T00:31:53.349Z,25.63
2022-08-05T00:32:10.150Z,25.65
2022-08-05T00:32:25.861Z,25.70
2022-08-05T00:32:37.898Z,25.73
2022-08-05T00:32:52.442Z,25.75
2022-08-05T00:33:05.691Z,25.73
2022-08-05T00:34:55.374Z,25.82
2022-08-05T00:34:56.350Z,25.79
2022-08-05T00:34:56.408Z,25.76
2022-08-05T00:35:07.525Z,25.81
2022-08-05T00:35:20.289Z,25.83
2022-08-05T00:35:33.222Z,25.84
2022-08-05T00:35:47.985Z,25.83
2022-08-05T00:37:11.169Z,25.87
2022-08-05T00:37:12.405Z,25.96
2022-08-05T00:37:21.220Z,25.98
2022-08-05T00:37:50.682Z,26.00
2022-08-05T00:38:09.471Z,26.04
2022-08-05T00:38:28.643Z,26.02
2022-08-05T00:38:40.943Z,26.06
2022-08-05T00:38:53.035Z,26.09
2022-08-05T00:39:05.217Z,26.13
2022-08-05T00:39:25.571Z,26.13
2022-08-05T00:39:44.212Z,26.14
2022-08-05T00:40:10.009Z,26.17
2022-08-05T00:40:28.374Z,26.19
2022-08-05T00:40:53.440Z,26.19
2022-08-05T00:41:07.453Z,26.18
2022-08-05T00:41:51.578Z,26.18
2022-08-05T00:42:04.018Z,26.17
2022-08-05T00:42:31.692Z,26.18
2022-08-05T00:42:44.532Z,26.22
2022-08-05T00:43:02.679Z,26.25
2022-08-05T00:43:20.298Z,26.26
2022-08-05T00:43:47.371Z,26.26
2022-08-05T00:44:02.135Z,26.27
2022-08-05T00:44:14.189Z,26.29
2022-08-05T00:44:31.018Z,26.30
2022-08-05T00:44:43.568Z,26.34
2022-08-05T00:44:55.724Z,26.35
2022-08-05T00:45:11.528Z,26.37
2022-08-05T00:45:38.242Z,26.37
2022-08-05T00:45:51.384Z,26.39
2022-08-05T00:46:04.802Z,26.41
2022-08-05T00:46:16.783Z,26.41
2022-08-05T00:46:42.535Z,26.43
2022-08-05T00:47:03.636Z,26.45
2022-08-05T00:47:17.567Z,26.31
2022-08-05T00:47:31.713Z,26.34
2022-08-05T00:48:05.934Z,26.31
2022-08-05T00:48:31.271Z,26.29
2022-08-05T00:48:50.640Z,26.34
2022-08-05T00:49:03.738Z,26.39
2022-08-05T00:49:19.144Z,26.38
2022-08-05T00:49:32.824Z,26.40
2022-08-05T00:49:56.551Z,26.43
2022-08-05T00:50:10.867Z,26.44
2022-08-05T00:50:25.446Z,26.43
2022-08-05T00:50:41.261Z,26.44
2022-08-05T00:50:54.148Z,26.46
2022-08-05T00:51:08.785Z,26.43
2022-08-05T00:51:51.100Z,26.30
2022-08-05T00:51:53.959Z,26.33
2022-08-05T00:52:06.988Z,26.34
2022-08-05T00:52:28.233Z,26.37
2022-08-05T00:52:40.780Z,26.31
2022-08-05T00:52:55.049Z,26.34
2022-08-05T00:53:09.860Z,26.38
2022-08-05T00:54:00.943Z,26.40
2022-08-05T00:54:14.185Z,26.38
2022-08-05T00:54:30.082Z,26.40
2022-08-05T00:54:42.077Z,26.36
2022-08-05T00:54:56.152Z,26.40
2022-08-05T00:55:08.368Z,26.40
2022-08-05T00:55:20.809Z,26.41
2022-08-05T00:55:41.982Z,26.29
2022-08-05T00:55:55.054Z,26.37
2022-08-05T00:56:08.204Z,26.37
2022-08-05T00:56:22.749Z,26.28
2022-08-05T00:56:35.033Z,26.31
2022-08-05T00:56:51.365Z,26.24
2022-08-05T00:57:04.440Z,26.20
2022-08-05T00:57:16.807Z,26.23
2022-08-05T00:57:38.335Z,26.30
2022-08-05T00:58:05.182Z,26.37
2022-08-05T00:58:19.115Z,26.34
2022-08-05T00:58:31.376Z,26.38
2022-08-05T00:58:44.980Z,26.42
2022-08-05T00:58:57.124Z,26.43
2022-08-05T00:59:12.223Z,26.49
2022-08-05T00:59:24.163Z,26.51
2022-08-05T00:59:44.682Z,26.53
2022-08-05T00:59:57.516Z,26.61
2022-08-05T01:00:11.224Z,26.66
2022-08-05T01:00:25.984Z,26.42
2022-08-05T01:00:39.518Z,26.39
2022-08-05T01:00:51.659Z,26.36
2022-08-05T01:01:08.713Z,26.39
2022-08-05T01:01:24.777Z,26.44
2022-08-05T01:01:53.169Z,26.58
2022-08-05T01:02:05.331Z,26.64
2022-08-05T01:02:20.819Z,26.69
2022-08-05T01:02:36.354Z,26.76
2022-08-05T01:02:50.195Z,26.79
2022-08-05T01:03:02.210Z,26.82
2022-08-05T01:03:22.981Z,26.87
2022-08-05T01:03:35.316Z,26.89
2022-08-05T01:03:49.943Z,26.92
2022-08-05T01:04:03.182Z,26.96
2022-08-05T01:04:26.989Z,26.99
2022-08-05T01:04:42.279Z,26.99
2022-08-05T01:04:54.277Z,26.99
2022-08-05T01:05:10.154Z,27.01
2022-08-05T01:05:22.632Z,27.01
2022-08-05T01:05:35.300Z,27.02
2022-08-05T01:05:47.252Z,27.05
2022-08-05T01:05:59.215Z,27.04
2022-08-05T01:06:15.295Z,27.05
2022-08-05T01:06:32.618Z,27.07
2022-08-05T01:06:48.793Z,27.10
2022-08-05T01:07:01.008Z,27.13
2022-08-05T01:07:17.862Z,27.10
2022-08-05T01:07:31.650Z,27.10
2022-08-05T01:08:40.050Z,27.18
2022-08-05T01:08:40.620Z,27.14
2022-08-05T01:08:47.756Z,27.22
2022-08-05T01:09:00.523Z,27.18
2022-08-05T01:09:15.138Z,27.05
2022-08-05T01:09:31.840Z,26.92
2022-08-05T01:09:43.890Z,26.97
2022-08-05T01:09:56.594Z,26.92
2022-08-05T01:10:12.083Z,26.96
2022-08-05T01:10:35.316Z,26.98
2022-08-05T01:10:59.225Z,26.99
2022-08-05T01:11:22.629Z,26.96
2022-08-05T01:11:39.612Z,27.00
2022-08-05T01:11:55.693Z,27.05
2022-08-05T01:12:18.444Z,27.10
2022-08-05T01:12:31.096Z,27.12
2022-08-05T01:13:05.228Z,27.19
2022-08-05T01:13:22.427Z,27.23
2022-08-05T01:13:58.538Z,27.22
2022-08-05T01:14:28.085Z,27.07
2022-08-05T01:14:48.635Z,26.83
2022-08-05T01:15:35.480Z,26.79
2022-08-05T01:15:47.870Z,26.84
2022-08-05T01:16:04.927Z,26.87
2022-08-05T01:16:38.010Z,26.93
2022-08-05T01:16:59.910Z,27.04
2022-08-05T01:17:29.162Z,27.12
2022-08-05T01:17:53.616Z,27.14
2022-08-05T01:18:12.563Z,27.16
2022-08-05T01:18:34.081Z,27.20
2022-08-05T01:18:56.407Z,27.20
2022-08-05T01:19:46.166Z,26.99
2022-08-05T01:20:27.132Z,27.15
2022-08-05T01:21:22.835Z,27.15
2022-08-05T01:21:51.170Z,27.21
2022-08-05T01:22:18.866Z,27.27
2022-08-05T01:22:51.513Z,27.27
2022-08-05T01:23:14.399Z,27.25
2022-08-05T01:23:39.590Z,27.17
2022-08-05T01:24:05.362Z,27.21
2022-08-05T01:24:49.995Z,27.01
2022-08-05T01:25:40.681Z,27.12
2022-08-05T01:26:07.136Z,27.17
2022-08-05T01:26:33.948Z,27.20
2022-08-05T01:27:17.594Z,27.30
2022-08-05T01:28:05.966Z,27.17
2022-08-05T01:28:37.553Z,26.75
2022-08-05T01:28:57.965Z,26.89
2022-08-05T01:29:28.515Z,26.97
2022-08-05T01:29:47.028Z,26.96
2022-08-05T01:30:03.744Z,26.99
2022-08-05T01:30:18.874Z,27.08
2022-08-05T01:30:36.650Z,27.07
2022-08-05T01:31:04.867Z,27.15
2022-08-05T01:31:44.589Z,27.05
2022-08-05T01:32:02.121Z,26.91
2022-08-05T01:32:22.263Z,26.79
2022-08-05T01:32:38.984Z,26.86
2022-08-05T01:32:53.570Z,26.95
2022-08-05T01:33:08.619Z,27.00
2022-08-05T01:33:25.208Z,27.10
2022-08-05T01:33:54.253Z,27.15
2022-08-05T01:34:13.959Z,27.02
2022-08-05T01:34:31.219Z,27.12
2022-08-05T01:34:58.291Z,27.28
2022-08-05T01:35:51.030Z,27.30
2022-08-05T01:35:51.085Z,27.35
2022-08-05T01:36:12.896Z,27.23
2022-08-05T01:36:32.789Z,27.25
2022-08-05T01:36:49.165Z,27.30
2022-08-05T01:37:09.338Z,27.35
2022-08-05T01:37:44.290Z,27.28
2022-08-05T01:37:59.556Z,27.27
2022-08-05T01:38:24.600Z,27.29
2022-08-05T01:38:40.966Z,27.41
2022-08-05T01:38:54.594Z,27.40
2022-08-05T01:39:06.704Z,27.38
2022-08-05T01:39:45.617Z,27.29
2022-08-05T01:39:58.689Z,26.88
2022-08-05T01:40:17.848Z,26.87
2022-08-05T01:40:32.558Z,26.89
2022-08-05T01:40:46.602Z,26.98
2022-08-05T01:41:01.948Z,27.08
2022-08-05T01:41:17.280Z,27.10
2022-08-05T01:41:36.687Z,27.19
2022-08-05T01:41:51.082Z,27.03
2022-08-05T01:42:09.757Z,27.12
2022-08-05T01:42:23.947Z,27.23
2022-08-05T01:42:37.937Z,27.28
2022-08-05T01:42:54.673Z,27.25
2022-08-05T01:43:08.046Z,27.19
2022-08-05T01:43:35.722Z,27.23
2022-08-05T01:43:49.264Z,27.23
2022-08-05T01:44:02.849Z,27.24
2022-08-05T01:44:16.439Z,27.28
2022-08-05T01:44:35.333Z,27.30
2022-08-05T01:44:54.116Z,27.32
2022-08-05T01:45:08.134Z,27.33
2022-08-05T01:45:21.081Z,27.37
2022-08-05T01:45:34.697Z,27.37
2022-08-05T01:45:47.176Z,27.40
2022-08-05T01:46:16.450Z,27.43
2022-08-05T01:46:46.207Z,27.46
2022-08-05T01:47:00.934Z,27.47
2022-08-05T01:47:17.248Z,27.47
2022-08-05T01:47:39.216Z,27.48
2022-08-05T01:47:55.565Z,27.48
2022-08-05T01:48:10.490Z,27.49
2022-08-05T01:48:23.773Z,27.50
2022-08-05T01:48:39.034Z,27.52
2022-08-05T01:48:55.522Z,27.56
2022-08-05T01:49:22.642Z,27.57
2022-08-05T01:50:01.886Z,27.54
2022-08-05T01:50:15.121Z,27.54
2022-08-05T01:50:30.940Z,27.50
2022-08-05T01:50:50.963Z,27.54
2022-08-05T01:51:11.929Z,27.50
2022-08-05T01:51:29.289Z,27.43
2022-08-05T01:51:42.899Z,27.41
2022-08-05T01:52:17.321Z,27.42
2022-08-05T01:52:34.545Z,27.40
2022-08-05T01:52:49.849Z,27.42
2022-08-05T01:53:15.093Z,27.44
2022-08-05T01:53:56.988Z,27.47
2022-08-05T01:54:13.546Z,27.48
2022-08-05T01:54:46.074Z,27.50
2022-08-05T01:55:02.270Z,27.44
2022-08-05T01:55:20.007Z,27.30
2022-08-05T01:55:36.260Z,27.19
2022-08-05T01:55:50.533Z,27.20
2022-08-05T01:56:04.540Z,27.22
2022-08-05T01:58:09.564Z,27.32
2022-08-05T01:58:12.869Z,27.36
2022-08-05T01:58:14.681Z,27.25
2022-08-05T01:58:18.883Z,27.40
2022-08-05T01:58:44.927Z,27.39
2022-08-05T01:58:59.108Z,27.29
2022-08-05T01:59:15.409Z,27.30
2022-08-05T01:59:30.788Z,27.32
2022-08-05T01:59:47.080Z,27.32
2022-08-05T02:00:00.921Z,27.35
2022-08-05T02:00:14.069Z,27.34
2022-08-05T02:00:30.421Z,27.35
2022-08-05T02:00:50.949Z,27.36
2022-08-05T02:01:05.473Z,27.38
2022-08-05T02:01:24.684Z,27.39
2022-08-05T02:01:40.082Z,27.36
2022-08-05T02:01:54.818Z,27.36
2022-08-05T02:02:11.926Z,27.28
2022-08-05T02:02:30.816Z,27.23
2022-08-05T02:02:54.867Z,27.20
2022-08-05T02:03:24.417Z,27.19
2022-08-05T02:03:48.843Z,27.24
2022-08-05T02:04:04.267Z,27.22
2022-08-05T02:04:19.452Z,27.07
2022-08-05T02:04:36.539Z,27.03
2022-08-05T02:04:54.796Z,27.09
2022-08-05T02:05:11.701Z,27.14
2022-08-05T02:05:30.041Z,27.18
2022-08-05T02:05:48.273Z,27.23
2022-08-05T02:06:03.773Z,27.25
2022-08-05T02:06:38.278Z,27.32
2022-08-05T02:06:50.893Z,27.29
2022-08-05T02:07:03.545Z,27.29
2022-08-05T02:07:22.132Z,27.30
2022-08-05T02:07:36.232Z,27.31
2022-08-05T02:08:00.134Z,27.34
2022-08-05T02:08:13.878Z,27.37
2022-08-05T02:08:54.946Z,27.38
2022-08-05T02:09:10.908Z,27.40
2022-08-05T02:09:26.928Z,27.37
2022-08-05T02:09:40.280Z,27.38
2022-08-05T02:09:52.530Z,27.39
2022-08-05T02:10:07.838Z,27.38
2022-08-05T02:10:20.359Z,27.35
2022-08-05T02:10:49.082Z,27.30
2022-08-05T02:11:06.850Z,27.29
2022-08-05T02:11:24.119Z,27.30
2022-08-05T02:11:55.442Z,27.32
2022-08-05T02:12:25.274Z,27.33
2022-08-05T02:12:45.053Z,27.31
2022-08-05T02:13:17.129Z,27.35
2022-08-05T02:13:53.800Z,27.39
2022-08-05T02:14:13.107Z,27.47
2022-08-05T02:14:33.376Z,27.48
2022-08-05T02:14:59.091Z,27.49
2022-08-05T02:15:33.267Z,27.44
2022-08-05T02:15:53.884Z,27.43
2022-08-05T02:16:16.614Z,27.43
2022-08-05T02:16:44.393Z,27.42
2022-08-05T02:17:03.719Z,27.42
2022-08-05T02:18:27.916Z,27.42
2022-08-05T02:18:30.965Z,27.46
2022-08-05T02:18:47.958Z,27.50
2022-08-05T02:19:11.658Z,27.47
2022-08-05T02:19:27.367Z,27.46
2022-08-05T02:19:47.403Z,27.45
2022-08-05T02:20:03.636Z,27.45
2022-08-05T02:20:22.132Z,27.46
2022-08-05T02:20:53.560Z,27.42
2022-08-05T02:21:16.079Z,27.38
2022-08-05T02:21:43.544Z,27.39
2022-08-05T02:22:01.424Z,27.38
2022-08-05T02:22:26.552Z,27.38
2022-08-05T02:22:48.075Z,27.33
2022-08-05T02:23:05.580Z,27.33
2022-08-05T02:23:26.053Z,27.30
2022-08-05T02:23:42.438Z,27.28
2022-08-05T02:23:59.496Z,27.26
2022-08-05T02:24:18.441Z,27.24
2022-08-05T02:24:36.856Z,27.24
2022-08-05T02:24:53.869Z,27.22
2022-08-05T02:25:12.851Z,27.24
2022-08-05T02:25:33.236Z,27.23
2022-08-05T02:25:50.031Z,27.23
2022-08-05T02:26:06.341Z,27.22
2022-08-05T02:26:27.747Z,27.21
2022-08-05T02:26:53.985Z,27.20
2022-08-05T02:27:10.612Z,27.20
2022-08-05T02:27:30.019Z,27.20
2022-08-05T02:27:58.586Z,27.17
2022-08-05T02:28:14.536Z,27.17
2022-08-05T02:28:33.064Z,27.17
2022-08-05T02:28:49.920Z,27.18
2022-08-05T02:29:02.716Z,27.17
2022-08-05T02:29:26.091Z,27.16
2022-08-05T02:29:59.782Z,27.14
2022-08-05T02:30:13.168Z,27.09
2022-08-05T02:30:30.505Z,27.08
2022-08-05T02:30:54.250Z,27.04
2022-08-05T02:31:21.108Z,27.02
2022-08-05T02:31:35.672Z,26.99
2022-08-05T02:31:50.247Z,26.99
2022-08-05T02:32:04.851Z,27.00
2022-08-05T02:32:24.219Z,26.99
2022-08-05T02:32:43.151Z,26.94
2022-08-05T02:32:58.612Z,26.90
2022-08-05T02:33:15.045Z,26.88
2022-08-05T02:33:40.714Z,26.95
2022-08-05T02:33:58.226Z,26.96
2022-08-05T02:34:14.083Z,26.97
2022-08-05T02:34:29.931Z,26.98
2022-08-05T02:34:45.833Z,26.98
2022-08-05T02:35:14.156Z,26.96
2022-08-05T02:35:33.306Z,26.95
2022-08-05T02:35:57.621Z,27.00
2022-08-05T02:36:16.282Z,27.02
2022-08-05T02:36:31.850Z,27.04
2022-08-05T02:36:50.797Z,27.09
2022-08-05T02:37:05.179Z,27.11
2022-08-05T02:37:18.768Z,27.12
2022-08-05T02:37:34.794Z,27.11
2022-08-05T02:37:53.791Z,27.12
2022-08-05T02:38:09.206Z,27.10
2022-08-05T02:38:22.601Z,27.09
2022-08-05T02:38:42.899Z,27.05
2022-08-05T02:38:57.586Z,27.07
2022-08-05T02:39:10.873Z,27.07
2022-08-05T02:39:24.283Z,27.08
2022-08-05T02:39:41.300Z,27.04
2022-08-05T02:39:59.421Z,27.02
2022-08-05T02:40:12.890Z,27.01
2022-08-05T02:40:26.119Z,27.02
2022-08-05T02:40:43.458Z,26.99
2022-08-05T02:40:57.937Z,27.00
2022-08-05T02:41:17.054Z,26.96
2022-08-05T02:41:43.140Z,26.95
2022-08-05T02:42:06.787Z,26.95
2022-08-05T02:42:27.624Z,26.92
2022-08-05T02:42:44.726Z,26.89
2022-08-05T02:43:07.314Z,26.87
2022-08-05T02:43:22.064Z,26.87
2022-08-05T02:43:34.545Z,26.89
2022-08-05T02:44:12.374Z,26.86
2022-08-05T02:44:27.277Z,26.83
2022-08-05T02:44:40.128Z,26.83
2022-08-05T02:44:55.077Z,26.83
2022-08-05T02:45:09.456Z,26.82
2022-08-05T02:45:25.262Z,26.84
2022-08-05T02:45:52.519Z,26.86
2022-08-05T02:46:06.764Z,26.89
2022-08-05T02:46:27.731Z,26.91
2022-08-05T02:46:58.626Z,26.91
2022-08-05T02:47:14.841Z,26.95
2022-08-05T02:47:58.663Z,26.93
2022-08-05T02:48:11.419Z,26.92
2022-08-05T02:48:29.766Z,26.90
2022-08-05T02:48:42.245Z,26.91
2022-08-05T02:48:56.288Z,26.91
2022-08-05T02:49:11.065Z,26.90
2022-08-05T02:49:24.265Z,26.93
2022-08-05T02:49:42.281Z,26.90
2022-08-05T02:49:55.645Z,26.86
2022-08-05T02:50:08.811Z,26.87
2022-08-05T02:50:24.966Z,26.88
2022-08-05T02:50:37.999Z,26.87
2022-08-05T02:50:58.556Z,26.86
2022-08-05T02:51:13.084Z,26.86
2022-08-05T02:51:42.381Z,26.84
2022-08-05T02:52:02.646Z,26.87
2022-08-05T02:52:25.891Z,26.89
2022-08-05T02:52:45.646Z,26.88
2022-08-05T02:52:57.712Z,26.89
2022-08-05T02:53:11.804Z,26.91
2022-08-05T02:53:39.538Z,26.88
2022-08-05T02:53:54.777Z,26.86
2022-08-05T02:54:07.423Z,26.90
2022-08-05T02:54:36.040Z,26.89
2022-08-05T02:54:52.071Z,26.92
2022-08-05T02:55:08.585Z,26.93
2022-08-05T02:55:54.326Z,26.92
2022-08-05T02:56:00.027Z,26.84
2022-08-05T02:56:15.729Z,26.83
2022-08-05T02:56:31.264Z,26.83
2022-08-05T02:56:45.956Z,26.83
2022-08-05T02:56:59.842Z,26.84
2022-08-05T02:58:19.865Z,26.85
2022-08-05T02:58:20.022Z,26.85
2022-08-05T02:58:23.019Z,26.81
2022-08-05T02:58:43.925Z,26.80
2022-08-05T02:58:56.458Z,26.85
2022-08-05T02:59:13.652Z,26.83
2022-08-05T02:59:27.877Z,26.84
2022-08-05T02:59:48.107Z,26.83
2022-08-05T03:00:02.916Z,26.79
2022-08-05T03:00:15.007Z,26.81
2022-08-05T03:00:28.155Z,26.81
2022-08-05T03:00:41.052Z,26.77
2022-08-05T03:01:02.002Z,26.76
2022-08-05T03:01:19.688Z,26.76
2022-08-05T03:01:35.052Z,26.76
2022-08-05T03:01:51.881Z,26.75
2022-08-05T03:02:04.693Z,26.74
2022-08-05T03:02:20.484Z,26.76
2022-08-05T03:02:36.780Z,26.73
2022-08-05T03:02:49.505Z,26.74
2022-08-05T03:03:03.617Z,26.76
2022-08-05T03:03:23.524Z,26.76
2022-08-05T03:04:02.821Z,26.77
2022-08-05T03:04:15.791Z,26.71
2022-08-05T03:04:29.060Z,26.72
2022-08-05T03:04:43.665Z,26.70
2022-08-05T03:04:57.950Z,26.72
2022-08-05T03:05:13.640Z,26.72
2022-08-05T03:06:53.880Z,26.74
2022-08-05T03:06:54.729Z,26.74
2022-08-05T03:06:54.923Z,26.73
2022-08-05T03:07:03.970Z,26.76
2022-08-05T03:07:24.680Z,26.74
2022-08-05T03:08:06.910Z,26.78
2022-08-05T03:08:26.922Z,26.81
2022-08-05T03:08:43.139Z,26.80
2022-08-05T03:08:55.493Z,26.79
2022-08-05T03:09:12.131Z,26.80
2022-08-05T03:09:37.634Z,26.75
2022-08-05T03:09:51.962Z,26.75
2022-08-05T03:10:04.972Z,26.73
2022-08-05T03:10:21.968Z,26.74
2022-08-05T03:10:36.986Z,26.70
2022-08-05T03:11:01.066Z,26.70
2022-08-05T03:11:56.316Z,26.67
2022-08-05T03:11:58.444Z,26.68
2022-08-05T03:12:28.709Z,26.69
2022-08-05T03:12:41.249Z,26.71
2022-08-05T03:13:16.799Z,26.67
2022-08-05T03:13:51.195Z,26.66
2022-08-05T03:14:02.819Z,26.68
2022-08-05T03:14:15.403Z,26.67
2022-08-05T03:14:27.350Z,26.65
2022-08-05T03:14:46.166Z,26.66
2022-08-05T03:15:00.423Z,26.68
2022-08-05T03:15:12.608Z,26.67
2022-08-05T03:15:24.799Z,26.69
2022-08-05T03:15:36.882Z,26.68
2022-08-05T03:15:50.203Z,26.67
2022-08-05T03:16:03.950Z,26.67
2022-08-05T03:16:16.543Z,26.68
2022-08-05T03:16:31.795Z,26.69
2022-08-05T03:16:43.907Z,26.71
2022-08-05T03:16:55.887Z,26.70
2022-08-05T03:17:09.162Z,26.74
2022-08-05T03:17:21.632Z,26.76
2022-08-05T03:17:34.464Z,26.75
2022-08-05T03:17:55.926Z,26.73
2022-08-05T03:18:09.483Z,26.72
2022-08-05T03:18:24.621Z,26.73
2022-08-05T03:18:42.590Z,26.62
2022-08-05T03:18:59.599Z,26.61
2022-08-05T03:19:17.098Z,26.60
2022-08-05T03:19:45.730Z,26.54
2022-08-05T03:19:58.695Z,26.51
2022-08-05T03:20:11.232Z,26.53
2022-08-05T03:20:26.256Z,26.53
2022-08-05T03:20:38.642Z,26.54
2022-08-05T03:21:00.512Z,26.57
2022-08-05T03:21:12.798Z,26.58
2022-08-05T03:21:28.919Z,26.58
2022-08-05T03:21:48.921Z,26.57
2022-08-05T03:22:01.784Z,26.57
2022-08-05T03:22:19.051Z,26.57
2022-08-05T03:22:49.779Z,26.61
2022-08-05T03:23:04.999Z,26.61
2022-08-05T03:23:17.648Z,26.63
2022-08-05T03:23:29.917Z,26.63
2022-08-05T03:23:43.526Z,26.65
2022-08-05T03:23:58.109Z,26.66
2022-08-05T03:24:10.400Z,26.68
2022-08-05T03:24:30.052Z,26.68
2022-08-05T03:24:52.080Z,26.70
2022-08-05T03:25:32.044Z,26.72
2022-08-05T03:26:03.563Z,26.72
2022-08-05T03:26:30.551Z,26.75
2022-08-05T03:26:42.882Z,26.73
2022-08-05T03:27:01.626Z,26.75
2022-08-05T03:27:14.297Z,26.74
2022-08-05T03:27:39.435Z,26.71
2022-08-05T03:28:00.771Z,26.70
2022-08-05T03:28:14.123Z,26.63
2022-08-05T03:28:27.329Z,26.62
2022-08-05T03:28:39.386Z,26.65
2022-08-05T03:28:53.038Z,26.67
2022-08-05T03:29:07.271Z,26.67
2022-08-05T03:29:24.497Z,26.66
2022-08-05T03:30:08.292Z,26.65
2022-08-05T03:30:22.334Z,26.68
2022-08-05T03:30:46.585Z,26.69
2022-08-05T03:31:01.578Z,26.70
2022-08-05T03:31:25.858Z,26.70
2022-08-05T03:31:56.211Z,26.73
2022-08-05T03:32:10.256Z,26.73
2022-08-05T03:32:30.997Z,26.75
2022-08-05T03:32:43.795Z,26.77
2022-08-05T03:32:55.736Z,26.76
2022-08-05T03:33:08.002Z,26.76
2022-08-05T03:33:20.817Z,26.76
2022-08-05T03:33:50.849Z,26.75
2022-08-05T03:34:04.460Z,26.70
2022-08-05T03:34:16.670Z,26.66
2022-08-05T03:34:28.927Z,26.65
2022-08-05T03:34:41.894Z,26.65
2022-08-05T03:34:54.327Z,26.66
2022-08-05T03:35:09.014Z,26.68
2022-08-05T03:35:22.130Z,26.72
2022-08-05T03:35:41.111Z,26.73
2022-08-05T03:35:56.946Z,26.73
2022-08-05T03:36:11.906Z,26.67
2022-08-05T03:36:30.417Z,26.63
2022-08-05T03:36:42.736Z,26.59
2022-08-05T03:36:54.689Z,26.59
2022-08-05T03:37:07.292Z,26.56
2022-08-05T03:37:23.548Z,26.55
2022-08-05T03:37:44.759Z,26.54
2022-08-05T03:38:02.572Z,26.47
2022-08-05T03:38:16.064Z,26.45
2022-08-05T03:38:33.262Z,26.48
2022-08-05T03:38:52.502Z,26.44
2022-08-05T03:39:12.931Z,26.43
2022-08-05T03:39:27.157Z,26.28
2022-08-05T03:39:58.795Z,26.26
2022-08-05T03:40:13.041Z,26.30
2022-08-05T03:40:31.961Z,26.27
2022-08-05T03:40:47.186Z,26.23
2022-08-05T03:40:59.755Z,26.27
2022-08-05T03:41:16.983Z,26.28
2022-08-05T03:41:38.605Z,26.34
2022-08-05T03:41:57.925Z,26.39
2022-08-05T03:42:09.850Z,26.42
2022-08-05T03:42:21.820Z,26.43
2022-08-05T03:42:41.547Z,26.46
2022-08-05T03:43:58.363Z,26.49
2022-08-05T03:44:09.597Z,26.45
2022-08-05T03:44:11.096Z,26.51
2022-08-05T03:44:24.835Z,26.49
2022-08-05T03:44:41.057Z,26.40
2022-08-05T03:44:53.038Z,26.38
2022-08-05T03:45:21.097Z,26.35
2022-08-05T03:45:55.289Z,26.28
2022-08-05T03:46:08.103Z,26.18
2022-08-05T03:46:20.309Z,26.20
2022-08-05T03:46:32.417Z,26.22
2022-08-05T03:46:44.656Z,26.23
2022-08-05T03:46:58.269Z,26.26
2022-08-05T03:47:10.195Z,26.27
2022-08-05T03:47:25.914Z,26.30
2022-08-05T03:47:42.576Z,26.35
2022-08-05T03:47:56.940Z,26.36
2022-08-05T03:48:10.247Z,26.38
2022-08-05T03:48:22.995Z,26.39
2022-08-05T03:48:35.445Z,26.40
2022-08-05T03:48:47.651Z,26.42
2022-08-05T03:48:59.726Z,26.42
2022-08-05T03:49:14.977Z,26.42
2022-08-05T03:49:51.644Z,26.43
2022-08-05T03:49:58.896Z,26.47
2022-08-05T03:50:13.334Z,26.48
2022-08-05T03:50:33.643Z,26.50
2022-08-05T03:50:52.785Z,26.50
2022-08-05T03:52:38.147Z,26.50
2022-08-05T03:52:39.424Z,26.54
2022-08-05T03:55:34.092Z,26.54
2022-08-05T03:55:50.443Z,26.56
2022-08-05T03:55:53.009Z,26.48
2022-08-05T03:56:06.191Z,26.52
2022-08-05T03:56:10.804Z,26.57
2022-08-05T03:56:41.273Z,26.57
2022-08-05T03:56:54.066Z,26.53
2022-08-05T03:57:16.541Z,26.51
2022-08-05T03:57:41.855Z,26.53
2022-08-05T03:57:56.482Z,26.48
2022-08-05T03:58:12.616Z,26.47
2022-08-05T03:58:31.059Z,26.45
2022-08-05T03:58:45.857Z,26.39
2022-08-05T03:59:06.233Z,26.37
2022-08-05T03:59:24.643Z,26.33
2022-08-05T03:59:54.466Z,26.31
2022-08-05T04:00:09.958Z,26.29
2022-08-05T04:00:29.598Z,26.25
2022-08-05T04:00:46.476Z,26.10
2022-08-05T04:01:07.610Z,26.09
2022-08-05T04:01:22.065Z,26.08
2022-08-05T04:01:37.680Z,26.05
2022-08-05T04:01:51.665Z,25.91
2022-08-05T04:02:05.630Z,25.94
2022-08-05T04:02:38.905Z,25.71
2022-08-05T04:02:58.359Z,25.81
2022-08-05T04:03:26.606Z,25.82
2022-08-05T04:04:10.560Z,25.80
2022-08-05T04:04:16.939Z,25.51
2022-08-05T04:04:34.798Z,25.32
2022-08-05T04:04:47.552Z,25.32
2022-08-05T04:05:01.215Z,25.38
2022-08-05T04:05:14.770Z,25.24
2022-08-05T04:05:34.245Z,25.34
2022-08-05T04:05:47.685Z,25.43
2022-08-05T04:05:59.793Z,25.42
2022-08-05T04:06:12.433Z,25.45
2022-08-05T04:06:25.052Z,25.26
2022-08-05T04:06:38.344Z,25.33
2022-08-05T04:07:00.492Z,25.29
2022-08-05T04:07:13.249Z,25.24
2022-08-05T04:07:26.393Z,25.26
2022-08-05T04:07:57.313Z,25.32